sensor_id;sensor_type;location;lat;lon;timestamp;pressure;altitude;pressure_sealevel;temperature;humidity
47983;BME280;33751;50.816;-1.214;2023-05-03T00:01:08;102657.00;;;26.80;100.00
47983;BME280;33751;50.816;-1.214;2023-05-03T00:03:35;102655.69;;;26.76;100.00
47983;BME280;33751;50.816;-1.214;2023-05-03T00:06:09;102653.64;;;26.65;100.00
47983;BME280;33751;50.816;-1.214;2023-05-03T00:08:36;102654.24;;;26.47;100.00
47983;BME280;33751;50.816;-1.214;2023-05-03T00:11:02;102652.46;;;26.69;100.00
47983;BME280;33751;50.816;-1.214;2023-05-03T00:13:29;102652.68;;;26.68;100.00
47983;BME280;33751;50.816;-1.214;2023-05-03T00:15:55;102651.44;;;26.43;100.00
47983;BME280;33751;50.816;-1.214;2023-05-03T00:18:22;102649.42;;;26.62;100.00
47983;BME280;33751;50.816;-1.214;2023-05-03T00:20:48;102647.09;;;26.51;100.00
47983;BME280;33751;50.816;-1.214;2023-05-03T00:23:16;102651.39;;;26.18;100.00
47983;BME280;33751;50.816;-1.214;2023-05-03T00:25:42;102650.97;;;26.49;100.00
47983;BME280;33751;50.816;-1.214;2023-05-03T00:28:08;102648.56;;;26.23;100.00
47983;BME280;33751;50.816;-1.214;2023-05-03T00:30:35;102648.49;;;25.98;100.00
47983;BME280;33751;50.816;-1.214;2023-05-03T00:33:02;102650.42;;;26.42;100.00
47983;BME280;33751;50.816;-1.214;2023-05-03T00:35:29;102648.19;;;26.45;100.00
47983;BME280;33751;50.816;-1.214;2023-05-03T00:37:55;102648.51;;;26.11;100.00
47983;BME280;33751;50.816;-1.214;2023-05-03T00:40:22;102651.42;;;26.08;100.00
47983;BME280;33751;50.816;-1.214;2023-05-03T00:42:48;102647.34;;;26.50;100.00
47983;BME280;33751;50.816;-1.214;2023-05-03T00:45:15;102644.17;;;26.15;100.00
47983;BME280;33751;50.816;-1.214;2023-05-03T00:47:42;102642.03;;;26.45;100.00
47983;BME280;33751;50.816;-1.214;2023-05-03T00:50:09;102639.46;;;26.17;100.00
47983;BME280;33751;50.816;-1.214;2023-05-03T00:52:37;102636.60;;;25.66;100.00
47983;BME280;33751;50.816;-1.214;2023-05-03T00:55:05;102638.03;;;26.22;100.00
47983;BME280;33751;50.816;-1.214;2023-05-03T00:57:32;102636.31;;;26.40;100.00
47983;BME280;33751;50.816;-1.214;2023-05-03T00:59:59;102632.09;;;25.93;100.00
47983;BME280;33751;50.816;-1.214;2023-05-03T01:02:26;102633.68;;;26.06;100.00
47983;BME280;33751;50.816;-1.214;2023-05-03T01:04:54;102630.02;;;25.90;100.00
47983;BME280;33751;50.816;-1.214;2023-05-03T01:07:29;102628.97;;;26.66;100.00
47983;BME280;33751;50.816;-1.214;2023-05-03T01:10:06;102626.00;;;26.10;100.00
47983;BME280;33751;50.816;-1.214;2023-05-03T01:12:43;102629.39;;;25.88;100.00
47983;BME280;33751;50.816;-1.214;2023-05-03T01:15:16;102629.28;;;26.11;100.00
47983;BME280;33751;50.816;-1.214;2023-05-03T01:17:50;102623.01;;;25.82;100.00
47983;BME280;33751;50.816;-1.214;2023-05-03T01:20:22;102621.90;;;26.28;100.00
47983;BME280;33751;50.816;-1.214;2023-05-03T01:22:54;102618.37;;;25.99;100.00
47983;BME280;33751;50.816;-1.214;2023-05-03T01:25:22;102615.05;;;26.02;100.00
47983;BME280;33751;50.816;-1.214;2023-05-03T01:27:48;102613.14;;;25.81;100.00
47983;BME280;33751;50.816;-1.214;2023-05-03T01:30:15;102614.82;;;25.77;100.00
47983;BME280;33751;50.816;-1.214;2023-05-03T01:32:51;102614.35;;;26.18;100.00
47983;BME280;33751;50.816;-1.214;2023-05-03T01:35:27;102614.96;;;25.87;100.00
47983;BME280;33751;50.816;-1.214;2023-05-03T01:37:55;102615.22;;;25.85;100.00
47983;BME280;33751;50.816;-1.214;2023-05-03T01:40:24;102616.54;;;26.10;100.00
47983;BME280;33751;50.816;-1.214;2023-05-03T01:42:54;102616.87;;;26.13;100.00
47983;BME280;33751;50.816;-1.214;2023-05-03T01:45:21;102614.34;;;25.85;100.00
47983;BME280;33751;50.816;-1.214;2023-05-03T01:47:48;102615.28;;;25.76;100.00
47983;BME280;33751;50.816;-1.214;2023-05-03T01:50:15;102611.82;;;25.70;100.00
47983;BME280;33751;50.816;-1.214;2023-05-03T01:52:42;102608.09;;;25.69;100.00
47983;BME280;33751;50.816;-1.214;2023-05-03T01:55:09;102607.15;;;25.75;100.00
47983;BME280;33751;50.816;-1.214;2023-05-03T01:57:36;102605.90;;;25.84;100.00
47983;BME280;33751;50.816;-1.214;2023-05-03T02:00:03;102605.89;;;26.00;100.00
47983;BME280;33751;50.816;-1.214;2023-05-03T02:02:30;102602.42;;;26.00;100.00
47983;BME280;33751;50.816;-1.214;2023-05-03T02:04:56;102599.69;;;25.84;100.00
47983;BME280;33751;50.816;-1.214;2023-05-03T02:07:24;102598.08;;;25.77;100.00
47983;BME280;33751;50.816;-1.214;2023-05-03T02:09:50;102594.53;;;25.80;100.00
47983;BME280;33751;50.816;-1.214;2023-05-03T02:12:17;102589.23;;;25.58;100.00
47983;BME280;33751;50.816;-1.214;2023-05-03T02:14:43;102585.58;;;25.55;100.00
47983;BME280;33751;50.816;-1.214;2023-05-03T02:17:10;102586.09;;;26.05;100.00
47983;BME280;33751;50.816;-1.214;2023-05-03T02:19:36;102584.09;;;25.33;100.00
47983;BME280;33751;50.816;-1.214;2023-05-03T02:22:03;102583.42;;;26.00;100.00
47983;BME280;33751;50.816;-1.214;2023-05-03T02:24:30;102581.21;;;25.98;100.00
47983;BME280;33751;50.816;-1.214;2023-05-03T02:26:56;102582.88;;;25.88;100.00
47983;BME280;33751;50.816;-1.214;2023-05-03T02:29:23;102582.41;;;25.92;100.00
47983;BME280;33751;50.816;-1.214;2023-05-03T02:31:49;102580.89;;;25.44;100.00
47983;BME280;33751;50.816;-1.214;2023-05-03T02:34:16;102578.19;;;25.42;100.00
47983;BME280;33751;50.816;-1.214;2023-05-03T02:36:42;102578.81;;;25.29;100.00
47983;BME280;33751;50.816;-1.214;2023-05-03T02:39:09;102577.09;;;25.84;100.00
47983;BME280;33751;50.816;-1.214;2023-05-03T02:41:35;102579.72;;;25.31;100.00
47983;BME280;33751;50.816;-1.214;2023-05-03T02:44:02;102578.03;;;25.76;100.00
47983;BME280;33751;50.816;-1.214;2023-05-03T02:46:28;102579.11;;;25.56;100.00
47983;BME280;33751;50.816;-1.214;2023-05-03T02:48:55;102575.51;;;25.26;100.00
47983;BME280;33751;50.816;-1.214;2023-05-03T02:51:21;102574.46;;;25.50;100.00
47983;BME280;33751;50.816;-1.214;2023-05-03T02:53:48;102577.20;;;25.57;100.00
47983;BME280;33751;50.816;-1.214;2023-05-03T02:56:15;102576.42;;;25.31;100.00
47983;BME280;33751;50.816;-1.214;2023-05-03T02:58:41;102577.25;;;25.49;100.00
47983;BME280;33751;50.816;-1.214;2023-05-03T03:01:09;102574.36;;;25.51;100.00
47983;BME280;33751;50.816;-1.214;2023-05-03T03:03:36;102573.91;;;25.22;100.00
47983;BME280;33751;50.816;-1.214;2023-05-03T03:06:03;102575.01;;;25.17;100.00
47983;BME280;33751;50.816;-1.214;2023-05-03T03:08:29;102571.62;;;25.39;100.00
47983;BME280;33751;50.816;-1.214;2023-05-03T03:10:56;102566.18;;;25.37;100.00
47983;BME280;33751;50.816;-1.214;2023-05-03T03:13:23;102567.03;;;25.16;100.00
47983;BME280;33751;50.816;-1.214;2023-05-03T03:15:49;102567.30;;;25.63;100.00
47983;BME280;33751;50.816;-1.214;2023-05-03T03:18:16;102564.01;;;25.68;100.00
47983;BME280;33751;50.816;-1.214;2023-05-03T03:20:42;102562.53;;;25.67;100.00
47983;BME280;33751;50.816;-1.214;2023-05-03T03:23:09;102562.50;;;25.65;100.00
47983;BME280;33751;50.816;-1.214;2023-05-03T03:25:36;102554.73;;;25.58;100.00
47983;BME280;33751;50.816;-1.214;2023-05-03T03:28:03;102553.62;;;25.57;100.00
47983;BME280;33751;50.816;-1.214;2023-05-03T03:30:30;102550.98;;;25.25;100.00
47983;BME280;33751;50.816;-1.214;2023-05-03T03:32:57;102547.02;;;25.24;100.00
47983;BME280;33751;50.816;-1.214;2023-05-03T03:35:23;102545.53;;;25.44;100.00
47983;BME280;33751;50.816;-1.214;2023-05-03T03:37:50;102545.98;;;25.35;100.00
47983;BME280;33751;50.816;-1.214;2023-05-03T03:40:16;102542.66;;;24.90;100.00
47983;BME280;33751;50.816;-1.214;2023-05-03T03:42:43;102543.02;;;25.43;100.00
47983;BME280;33751;50.816;-1.214;2023-05-03T03:45:10;102538.08;;;25.17;100.00
47983;BME280;33751;50.816;-1.214;2023-05-03T03:47:37;102537.64;;;25.15;100.00
47983;BME280;33751;50.816;-1.214;2023-05-03T03:50:04;102538.17;;;25.34;100.00
47983;BME280;33751;50.816;-1.214;2023-05-03T03:52:32;102535.42;;;25.24;100.00
47983;BME280;33751;50.816;-1.214;2023-05-03T03:54:59;102531.35;;;25.02;100.00
47983;BME280;33751;50.816;-1.214;2023-05-03T03:57:25;102529.51;;;25.31;100.00
47983;BME280;33751;50.816;-1.214;2023-05-03T03:59:52;102533.70;;;25.28;100.00
47983;BME280;33751;50.816;-1.214;2023-05-03T04:02:18;102532.01;;;25.26;100.00
47983;BME280;33751;50.816;-1.214;2023-05-03T04:04:45;102529.80;;;25.02;100.00
47983;BME280;33751;50.816;-1.214;2023-05-03T04:07:12;102526.86;;;24.94;100.00
47983;BME280;33751;50.816;-1.214;2023-05-03T04:09:38;102523.55;;;25.16;100.00
47983;BME280;33751;50.816;-1.214;2023-05-03T04:12:05;102527.39;;;24.89;100.00
47983;BME280;33751;50.816;-1.214;2023-05-03T04:14:33;102526.18;;;24.88;100.00
47983;BME280;33751;50.816;-1.214;2023-05-03T04:17:00;102521.95;;;25.21;100.00
47983;BME280;33751;50.816;-1.214;2023-05-03T04:19:26;102525.24;;;25.18;100.00
47983;BME280;33751;50.816;-1.214;2023-05-03T04:21:53;102525.00;;;25.04;100.00
47983;BME280;33751;50.816;-1.214;2023-05-03T04:24:19;102524.49;;;25.24;100.00
47983;BME280;33751;50.816;-1.214;2023-05-03T04:26:46;102521.92;;;25.20;100.00
47983;BME280;33751;50.816;-1.214;2023-05-03T04:29:12;102521.17;;;25.12;100.00
47983;BME280;33751;50.816;-1.214;2023-05-03T04:31:39;102520.07;;;24.90;100.00
47983;BME280;33751;50.816;-1.214;2023-05-03T04:34:05;102517.86;;;25.09;100.00
47983;BME280;33751;50.816;-1.214;2023-05-03T04:36:32;102517.95;;;25.07;100.00
47983;BME280;33751;50.816;-1.214;2023-05-03T04:38:59;102515.59;;;25.11;100.00
47983;BME280;33751;50.816;-1.214;2023-05-03T04:41:26;102514.64;;;25.39;100.00
47983;BME280;33751;50.816;-1.214;2023-05-03T04:43:53;102512.55;;;25.09;100.00
47983;BME280;33751;50.816;-1.214;2023-05-03T04:46:19;102512.04;;;24.83;100.00
47983;BME280;33751;50.816;-1.214;2023-05-03T04:48:46;102512.00;;;24.70;100.00
47983;BME280;33751;50.816;-1.214;2023-05-03T04:51:12;102513.09;;;25.01;100.00
47983;BME280;33751;50.816;-1.214;2023-05-03T04:53:39;102511.62;;;25.06;100.00
47983;BME280;33751;50.816;-1.214;2023-05-03T04:56:06;102511.86;;;25.24;100.00
47983;BME280;33751;50.816;-1.214;2023-05-03T04:58:33;102508.26;;;25.29;100.00
47983;BME280;33751;50.816;-1.214;2023-05-03T05:00:59;102509.65;;;25.12;100.00
47983;BME280;33751;50.816;-1.214;2023-05-03T05:03:26;102508.53;;;25.29;100.00
47983;BME280;33751;50.816;-1.214;2023-05-03T05:05:52;102508.94;;;25.57;100.00
47983;BME280;33751;50.816;-1.214;2023-05-03T05:08:19;102508.35;;;25.62;100.00
47983;BME280;33751;50.816;-1.214;2023-05-03T05:10:45;102505.85;;;25.74;100.00
47983;BME280;33751;50.816;-1.214;2023-05-03T05:13:13;102509.40;;;26.05;100.00
47983;BME280;33751;50.816;-1.214;2023-05-03T05:15:41;102510.38;;;26.09;100.00
47983;BME280;33751;50.816;-1.214;2023-05-03T05:18:08;102512.93;;;26.81;100.00
47983;BME280;33751;50.816;-1.214;2023-05-03T05:20:35;102510.40;;;27.02;100.00
47983;BME280;33751;50.816;-1.214;2023-05-03T05:23:02;102510.88;;;27.36;100.00
47983;BME280;33751;50.816;-1.214;2023-05-03T05:25:28;102511.18;;;28.19;100.00
47983;BME280;33751;50.816;-1.214;2023-05-03T05:27:55;102508.84;;;27.93;100.00
47983;BME280;33751;50.816;-1.214;2023-05-03T05:30:22;102512.26;;;28.16;100.00
47983;BME280;33751;50.816;-1.214;2023-05-03T05:32:49;102516.60;;;28.70;100.00
47983;BME280;33751;50.816;-1.214;2023-05-03T05:35:15;102515.88;;;28.54;100.00
47983;BME280;33751;50.816;-1.214;2023-05-03T05:37:42;102518.36;;;29.15;100.00
47983;BME280;33751;50.816;-1.214;2023-05-03T05:40:09;102520.05;;;28.99;100.00
47983;BME280;33751;50.816;-1.214;2023-05-03T05:42:36;102519.03;;;29.24;100.00
47983;BME280;33751;50.816;-1.214;2023-05-03T05:45:05;102518.98;;;29.35;100.00
47983;BME280;33751;50.816;-1.214;2023-05-03T05:47:32;102522.70;;;29.66;100.00
47983;BME280;33751;50.816;-1.214;2023-05-03T05:49:59;102520.44;;;30.15;100.00
47983;BME280;33751;50.816;-1.214;2023-05-03T05:52:26;102525.49;;;29.92;100.00
47983;BME280;33751;50.816;-1.214;2023-05-03T05:54:52;102527.30;;;29.73;100.00
47983;BME280;33751;50.816;-1.214;2023-05-03T05:57:19;102526.32;;;30.25;100.00
47983;BME280;33751;50.816;-1.214;2023-05-03T05:59:45;102529.45;;;30.03;100.00
47983;BME280;33751;50.816;-1.214;2023-05-03T06:02:14;102531.47;;;30.66;100.00
47983;BME280;33751;50.816;-1.214;2023-05-03T06:04:41;102534.18;;;30.70;100.00
47983;BME280;33751;50.816;-1.214;2023-05-03T06:07:07;102538.99;;;30.99;100.00
47983;BME280;33751;50.816;-1.214;2023-05-03T06:09:34;102537.12;;;30.90;100.00
47983;BME280;33751;50.816;-1.214;2023-05-03T06:12:00;102540.58;;;31.33;100.00
47983;BME280;33751;50.816;-1.214;2023-05-03T06:14:27;102538.35;;;31.54;100.00
47983;BME280;33751;50.816;-1.214;2023-05-03T06:16:53;102537.41;;;31.81;100.00
47983;BME280;33751;50.816;-1.214;2023-05-03T06:19:20;102532.91;;;31.64;100.00
47983;BME280;33751;50.816;-1.214;2023-05-03T06:21:46;102530.23;;;31.92;100.00
47983;BME280;33751;50.816;-1.214;2023-05-03T06:24:13;102525.07;;;32.61;100.00
47983;BME280;33751;50.816;-1.214;2023-05-03T06:26:42;102524.35;;;32.98;100.00
47983;BME280;33751;50.816;-1.214;2023-05-03T06:29:08;102521.10;;;33.22;100.00
47983;BME280;33751;50.816;-1.214;2023-05-03T06:31:35;102522.70;;;33.25;100.00
47983;BME280;33751;50.816;-1.214;2023-05-03T06:34:02;102520.42;;;33.77;100.00
47983;BME280;33751;50.816;-1.214;2023-05-03T06:36:29;102520.57;;;33.90;100.00
47983;BME280;33751;50.816;-1.214;2023-05-03T06:38:55;102515.37;;;34.09;100.00
47983;BME280;33751;50.816;-1.214;2023-05-03T06:41:22;102517.28;;;33.83;100.00
47983;BME280;33751;50.816;-1.214;2023-05-03T06:43:48;102515.56;;;33.95;100.00
47983;BME280;33751;50.816;-1.214;2023-05-03T06:46:14;102515.60;;;33.78;100.00
47983;BME280;33751;50.816;-1.214;2023-05-03T06:48:41;102514.99;;;34.27;100.00
47983;BME280;33751;50.816;-1.214;2023-05-03T06:51:07;102517.59;;;34.01;100.00
47983;BME280;33751;50.816;-1.214;2023-05-03T06:53:34;102522.29;;;33.89;100.00
47983;BME280;33751;50.816;-1.214;2023-05-03T06:56:01;102519.74;;;33.73;100.00
47983;BME280;33751;50.816;-1.214;2023-05-03T06:58:28;102522.55;;;33.55;100.00
47983;BME280;33751;50.816;-1.214;2023-05-03T07:00:54;102521.49;;;33.39;100.00
47983;BME280;33751;50.816;-1.214;2023-05-03T07:03:21;102528.12;;;33.00;100.00
47983;BME280;33751;50.816;-1.214;2023-05-03T07:05:47;102525.29;;;32.75;100.00
47983;BME280;33751;50.816;-1.214;2023-05-03T07:08:14;102535.53;;;32.74;100.00
47983;BME280;33751;50.816;-1.214;2023-05-03T07:10:40;102526.60;;;32.49;100.00
47983;BME280;33751;50.816;-1.214;2023-05-03T07:13:07;102524.04;;;32.78;100.00
47983;BME280;33751;50.816;-1.214;2023-05-03T07:15:34;102521.66;;;32.73;100.00
47983;BME280;33751;50.816;-1.214;2023-05-03T07:18:00;102520.76;;;32.45;100.00
47983;BME280;33751;50.816;-1.214;2023-05-03T07:20:27;102515.68;;;32.49;100.00
47983;BME280;33751;50.816;-1.214;2023-05-03T07:22:54;102509.20;;;33.76;100.00
47983;BME280;33751;50.816;-1.214;2023-05-03T07:25:20;102501.04;;;34.44;100.00
47983;BME280;33751;50.816;-1.214;2023-05-03T07:27:47;102501.44;;;34.61;100.00
47983;BME280;33751;50.816;-1.214;2023-05-03T07:30:14;102501.45;;;34.43;100.00
47983;BME280;33751;50.816;-1.214;2023-05-03T07:32:41;102495.81;;;34.39;100.00
47983;BME280;33751;50.816;-1.214;2023-05-03T07:35:08;102495.05;;;34.41;100.00
47983;BME280;33751;50.816;-1.214;2023-05-03T07:37:34;102494.31;;;34.87;100.00
47983;BME280;33751;50.816;-1.214;2023-05-03T07:40:01;102491.72;;;34.97;100.00
47983;BME280;33751;50.816;-1.214;2023-05-03T07:42:28;102488.70;;;35.05;100.00
47983;BME280;33751;50.816;-1.214;2023-05-03T07:44:54;102489.09;;;35.24;100.00
47983;BME280;33751;50.816;-1.214;2023-05-03T07:47:21;102492.97;;;35.26;100.00
47983;BME280;33751;50.816;-1.214;2023-05-03T07:49:48;102492.68;;;35.08;100.00
47983;BME280;33751;50.816;-1.214;2023-05-03T07:52:15;102495.62;;;35.41;100.00
47983;BME280;33751;50.816;-1.214;2023-05-03T07:54:42;102498.95;;;35.39;100.00
47983;BME280;33751;50.816;-1.214;2023-05-03T07:57:08;102500.40;;;36.27;100.00
47983;BME280;33751;50.816;-1.214;2023-05-03T07:59:35;102499.73;;;35.48;100.00
47983;BME280;33751;50.816;-1.214;2023-05-03T08:02:01;102499.45;;;36.09;100.00
47983;BME280;33751;50.816;-1.214;2023-05-03T08:04:28;102494.58;;;36.17;100.00
47983;BME280;33751;50.816;-1.214;2023-05-03T08:06:54;102494.40;;;36.26;100.00
47983;BME280;33751;50.816;-1.214;2023-05-03T08:09:21;102492.29;;;36.07;100.00
47983;BME280;33751;50.816;-1.214;2023-05-03T08:11:48;102487.11;;;35.89;100.00
47983;BME280;33751;50.816;-1.214;2023-05-03T08:14:15;102485.76;;;36.31;100.00
47983;BME280;33751;50.816;-1.214;2023-05-03T08:16:47;102486.43;;;36.39;100.00
47983;BME280;33751;50.816;-1.214;2023-05-03T08:19:14;102480.04;;;36.90;100.00
47983;BME280;33751;50.816;-1.214;2023-05-03T08:21:40;102482.81;;;36.74;100.00
47983;BME280;33751;50.816;-1.214;2023-05-03T08:24:07;102480.57;;;36.85;100.00
47983;BME280;33751;50.816;-1.214;2023-05-03T08:26:34;102481.01;;;36.58;100.00
47983;BME280;33751;50.816;-1.214;2023-05-03T08:29:01;102475.68;;;37.19;100.00
47983;BME280;33751;50.816;-1.214;2023-05-03T08:31:28;102476.93;;;37.55;100.00
47983;BME280;33751;50.816;-1.214;2023-05-03T08:33:54;102474.31;;;37.71;100.00
47983;BME280;33751;50.816;-1.214;2023-05-03T08:36:21;102469.12;;;38.02;100.00
47983;BME280;33751;50.816;-1.214;2023-05-03T08:38:48;102467.88;;;37.82;100.00
47983;BME280;33751;50.816;-1.214;2023-05-03T08:41:20;102470.55;;;37.77;100.00
47983;BME280;33751;50.816;-1.214;2023-05-03T08:43:51;102473.71;;;36.80;100.00
47983;BME280;33751;50.816;-1.214;2023-05-03T08:46:18;102480.69;;;36.01;100.00
47983;BME280;33751;50.816;-1.214;2023-05-03T08:48:47;102484.23;;;35.58;100.00
47983;BME280;33751;50.816;-1.214;2023-05-03T08:51:15;102479.19;;;35.20;100.00
47983;BME280;33751;50.816;-1.214;2023-05-03T08:53:44;102477.79;;;34.85;100.00
47983;BME280;33751;50.816;-1.214;2023-05-03T08:56:17;102475.19;;;34.69;100.00
47983;BME280;33751;50.816;-1.214;2023-05-03T08:58:46;102478.02;;;33.77;100.00
47983;BME280;33751;50.816;-1.214;2023-05-03T09:01:14;102476.03;;;34.26;100.00
47983;BME280;33751;50.816;-1.214;2023-05-03T09:03:48;102468.76;;;34.31;100.00
47983;BME280;33751;50.816;-1.214;2023-05-03T09:06:20;102465.83;;;33.48;100.00
47983;BME280;33751;50.816;-1.214;2023-05-03T09:08:47;102469.27;;;32.64;100.00
47983;BME280;33751;50.816;-1.214;2023-05-03T09:11:19;102473.72;;;32.51;100.00
47983;BME280;33751;50.816;-1.214;2023-05-03T09:13:46;102474.63;;;31.58;100.00
47983;BME280;33751;50.816;-1.214;2023-05-03T09:16:22;102476.68;;;30.85;100.00
47983;BME280;33751;50.816;-1.214;2023-05-03T09:18:57;102473.29;;;29.60;100.00
47983;BME280;33751;50.816;-1.214;2023-05-03T09:21:24;102471.83;;;29.28;100.00
47983;BME280;33751;50.816;-1.214;2023-05-03T09:23:51;102473.20;;;29.24;100.00
47983;BME280;33751;50.816;-1.214;2023-05-03T09:26:27;102476.11;;;28.09;100.00
47983;BME280;33751;50.816;-1.214;2023-05-03T09:28:54;102475.94;;;27.54;100.00
47983;BME280;33751;50.816;-1.214;2023-05-03T09:31:21;102479.95;;;27.04;100.00
47983;BME280;33751;50.816;-1.214;2023-05-03T09:33:48;102482.43;;;26.57;100.00
47983;BME280;33751;50.816;-1.214;2023-05-03T09:36:15;102474.62;;;26.15;100.00
47983;BME280;33751;50.816;-1.214;2023-05-03T09:38:41;102478.94;;;25.44;100.00
47983;BME280;33751;50.816;-1.214;2023-05-03T09:41:08;102481.40;;;25.98;100.00
47983;BME280;33751;50.816;-1.214;2023-05-03T09:43:34;102480.29;;;25.20;100.00
47983;BME280;33751;50.816;-1.214;2023-05-03T09:46:10;102476.25;;;25.19;100.00
47983;BME280;33751;50.816;-1.214;2023-05-03T09:48:37;102473.73;;;24.71;100.00
47983;BME280;33751;50.816;-1.214;2023-05-03T09:51:04;102472.75;;;25.24;100.00
47983;BME280;33751;50.816;-1.214;2023-05-03T09:53:32;102472.92;;;24.49;100.00
47983;BME280;33751;50.816;-1.214;2023-05-03T09:56:01;102470.48;;;25.21;100.00
47983;BME280;33751;50.816;-1.214;2023-05-03T09:58:29;102471.29;;;24.73;100.00
47983;BME280;33751;50.816;-1.214;2023-05-03T10:00:56;102467.16;;;24.70;100.00
47983;BME280;33751;50.816;-1.214;2023-05-03T10:03:27;102465.47;;;24.51;100.00
47983;BME280;33751;50.816;-1.214;2023-05-03T10:05:54;102466.17;;;24.40;100.00
47983;BME280;33751;50.816;-1.214;2023-05-03T10:08:34;102465.27;;;23.75;100.00
47983;BME280;33751;50.816;-1.214;2023-05-03T10:11:07;102463.62;;;23.87;100.00
47983;BME280;33751;50.816;-1.214;2023-05-03T10:13:34;102462.05;;;24.03;100.00
47983;BME280;33751;50.816;-1.214;2023-05-03T10:16:05;102458.95;;;24.25;100.00
47983;BME280;33751;50.816;-1.214;2023-05-03T10:18:33;102449.24;;;25.10;100.00
47983;BME280;33751;50.816;-1.214;2023-05-03T10:21:05;102448.67;;;23.60;100.00
47983;BME280;33751;50.816;-1.214;2023-05-03T10:23:34;102441.46;;;23.83;100.00
47983;BME280;33751;50.816;-1.214;2023-05-03T10:26:16;102444.99;;;23.67;100.00
47983;BME280;33751;50.816;-1.214;2023-05-03T10:28:42;102442.12;;;23.82;100.00
47983;BME280;33751;50.816;-1.214;2023-05-03T10:32:27;102438.36;;;23.66;100.00
47983;BME280;33751;50.816;-1.214;2023-05-03T10:34:56;102433.91;;;24.12;100.00
47983;BME280;33751;50.816;-1.214;2023-05-03T10:37:26;102431.61;;;23.69;100.00
47983;BME280;33751;50.816;-1.214;2023-05-03T10:39:53;102432.02;;;23.63;100.00
47983;BME280;33751;50.816;-1.214;2023-05-03T10:42:21;102433.33;;;22.99;100.00
47983;BME280;33751;50.816;-1.214;2023-05-03T10:44:50;102428.98;;;22.33;100.00
47983;BME280;33751;50.816;-1.214;2023-05-03T10:47:19;102421.95;;;22.86;100.00
47983;BME280;33751;50.816;-1.214;2023-05-03T10:49:46;102418.44;;;23.04;100.00
47983;BME280;33751;50.816;-1.214;2023-05-03T10:52:47;102417.39;;;22.67;100.00
47983;BME280;33751;50.816;-1.214;2023-05-03T10:55:15;102412.90;;;23.46;100.00
47983;BME280;33751;50.816;-1.214;2023-05-03T10:57:43;102408.78;;;23.63;100.00
47983;BME280;33751;50.816;-1.214;2023-05-03T11:00:13;102408.06;;;23.97;100.00
47983;BME280;33751;50.816;-1.214;2023-05-03T11:03:02;102405.63;;;23.29;100.00
47983;BME280;33751;50.816;-1.214;2023-05-03T11:05:33;102407.17;;;23.08;100.00
47983;BME280;33751;50.816;-1.214;2023-05-03T11:08:09;102405.58;;;22.97;100.00
47983;BME280;33751;50.816;-1.214;2023-05-03T11:10:36;102406.90;;;23.30;100.00
47983;BME280;33751;50.816;-1.214;2023-05-03T11:13:03;102404.25;;;22.90;100.00
47983;BME280;33751;50.816;-1.214;2023-05-03T11:15:31;102398.44;;;22.68;100.00
47983;BME280;33751;50.816;-1.214;2023-05-03T11:17:58;102395.45;;;22.92;100.00
47983;BME280;33751;50.816;-1.214;2023-05-03T11:20:25;102381.16;;;23.71;100.00
47983;BME280;33751;50.816;-1.214;2023-05-03T11:22:51;102383.18;;;22.85;100.00
47983;BME280;33751;50.816;-1.214;2023-05-03T11:25:18;102383.28;;;23.53;100.00
47983;BME280;33751;50.816;-1.214;2023-05-03T11:27:45;102385.13;;;22.83;100.00
47983;BME280;33751;50.816;-1.214;2023-05-03T11:30:13;102387.64;;;22.73;100.00
47983;BME280;33751;50.816;-1.214;2023-05-03T11:32:40;102371.50;;;23.36;100.00
47983;BME280;33751;50.816;-1.214;2023-05-03T11:35:08;102368.71;;;22.12;100.00
47983;BME280;33751;50.816;-1.214;2023-05-03T11:37:36;102370.11;;;21.81;100.00
47983;BME280;33751;50.816;-1.214;2023-05-03T11:40:04;102368.87;;;21.72;100.00
47983;BME280;33751;50.816;-1.214;2023-05-03T11:42:31;102360.79;;;22.64;100.00
47983;BME280;33751;50.816;-1.214;2023-05-03T11:44:59;102354.62;;;22.80;100.00
47983;BME280;33751;50.816;-1.214;2023-05-03T11:47:26;102349.14;;;23.04;100.00
47983;BME280;33751;50.816;-1.214;2023-05-03T11:49:54;102349.80;;;23.27;100.00
47983;BME280;33751;50.816;-1.214;2023-05-03T11:52:21;102337.05;;;23.69;100.00
47983;BME280;33751;50.816;-1.214;2023-05-03T11:54:49;102329.84;;;23.69;100.00
47983;BME280;33751;50.816;-1.214;2023-05-03T11:57:16;102329.65;;;22.76;100.00
47983;BME280;33751;50.816;-1.214;2023-05-03T11:59:44;102328.46;;;22.27;100.00
47983;BME280;33751;50.816;-1.214;2023-05-03T12:02:12;102327.03;;;21.93;100.00
47983;BME280;33751;50.816;-1.214;2023-05-03T12:04:42;102321.93;;;22.47;100.00
47983;BME280;33751;50.816;-1.214;2023-05-03T12:07:09;102315.33;;;23.04;100.00
47983;BME280;33751;50.816;-1.214;2023-05-03T12:09:37;102315.47;;;22.69;100.00
47983;BME280;33751;50.816;-1.214;2023-05-03T12:12:03;102319.61;;;23.26;100.00
47983;BME280;33751;50.816;-1.214;2023-05-03T12:14:54;102311.23;;;22.49;100.00
47983;BME280;33751;50.816;-1.214;2023-05-03T12:17:34;102312.33;;;22.25;100.00
47983;BME280;33751;50.816;-1.214;2023-05-03T12:20:43;102303.31;;;24.74;100.00
47983;BME280;33751;50.816;-1.214;2023-05-03T12:23:10;102305.07;;;25.14;100.00
47983;BME280;33751;50.816;-1.214;2023-05-03T12:25:37;102302.97;;;25.34;100.00
47983;BME280;33751;50.816;-1.214;2023-05-03T12:28:04;102294.85;;;26.10;100.00
47983;BME280;33751;50.816;-1.214;2023-05-03T12:30:33;102296.22;;;26.50;100.00
47983;BME280;33751;50.816;-1.214;2023-05-03T12:33:00;102289.80;;;26.72;100.00
47983;BME280;33751;50.816;-1.214;2023-05-03T12:35:26;102290.12;;;27.28;100.00